Time;durP1;ratioP1;P1;durP2;ratioP2;P2;SDS_P1;SDS_P2;PMS_P1;PMS_P2;Temp;Humidity;BMP_temperature;BMP_pressure;BME280_temperature;BME280_humidity;BME280_pressure;Samples;Min_cycle;Max_cycle;Signal;HPM_P1;HPM_P2
2022/09/15 00:00:10;;;;;;;5.38;0.90;;;17.40;99.90;;;;;;5031822;28;20690;-63
2022/09/15 00:02:36;;;;;;;7.18;1.45;;;17.30;99.90;;;;;;5026884;28;20549;-63
2022/09/15 00:05:01;;;;;;;5.70;1.20;;;17.30;99.90;;;;;;5013294;28;20113;-63
2022/09/15 00:07:27;;;;;;;4.75;1.00;;;17.40;99.90;;;;;;5025679;28;20092;-63
2022/09/15 00:09:53;;;;;;;4.47;1.60;;;17.50;99.90;;;;;;5032237;28;20042;-63
2022/09/15 00:12:18;;;;;;;3.65;1.00;;;17.50;99.90;;;;;;5032529;28;20415;-63
2022/09/15 00:14:44;;;;;;;5.97;1.02;;;17.50;99.90;;;;;;5032983;28;20033;-63
2022/09/15 00:17:09;;;;;;;6.25;1.20;;;17.50;99.90;;;;;;5031941;28;20033;-63
2022/09/15 00:19:35;;;;;;;5.40;1.13;;;17.40;99.90;;;;;;5023336;28;20084;-63
2022/09/15 00:22:00;;;;;;;6.63;1.40;;;17.70;1.00;;;;;;5012995;28;20133;-63
2022/09/15 00:24:26;;;;;;;3.67;1.48;;;17.40;59.00;;;;;;5019481;28;20080;-63
2022/09/15 00:26:52;;;;;;;6.35;1.20;;;17.40;1.00;;;;;;5030547;28;20072;-63
2022/09/15 00:29:17;;;;;;;7.53;1.48;;;17.40;99.90;;;;;;5031045;28;20041;-63
2022/09/15 00:31:43;;;;;;;7.32;1.10;;;17.40;99.90;;;;;;5031123;28;20048;-64
2022/09/15 00:34:11;;;;;;;11.23;1.65;;;17.40;99.90;;;;;;5032451;28;20037;-63
2022/09/15 00:36:37;;;;;;;1.95;1.00;;;17.30;99.90;;;;;;5031309;28;20045;-63
2022/09/15 00:39:03;;;;;;;3.08;1.15;;;17.40;99.90;;;;;;5030844;28;20056;-63
2022/09/15 00:41:29;;;;;;;7.55;1.15;;;17.50;1.00;;;;;;5032020;28;20041;-63
2022/09/15 00:44:01;;;;;;;4.47;1.02;;;17.50;99.90;;;;;;5032558;28;20049;-63
2022/09/15 00:46:29;;;;;;;6.25;1.30;;;17.50;99.90;;;;;;5029711;28;20107;-63
2022/09/15 00:49:28;;;;;;;6.13;1.50;;;17.50;99.90;;;;;;5029958;28;20041;-63
2022/09/15 00:52:06;;;;;;;7.93;2.00;;;17.50;99.90;;;;;;5020385;28;20044;-64
2022/09/15 00:54:41;;;;;;;7.63;2.05;;;17.50;1.00;;;;;;5031365;28;20045;-64
2022/09/15 00:57:14;;;;;;;6.97;1.80;;;17.40;5.50;;;;;;5029060;28;20495;-63
2022/09/15 00:59:41;;;;;;;7.50;1.83;;;17.20;1.00;;;;;;5029278;28;20048;-64
2022/09/15 01:02:26;;;;;;;7.72;1.70;;;17.20;99.90;;;;;;5032005;28;20042;-64
2022/09/15 01:04:53;;;;;;;10.85;1.80;;;17.10;99.90;;;;;;5030904;28;20037;-64
2022/09/15 01:07:26;;;;;;;6.47;1.45;;;17.10;99.90;;;;;;5027201;28;20407;-64
2022/09/15 01:09:58;;;;;;;10.88;1.70;;;17.10;1.00;;;;;;5028962;28;20049;-64
2022/09/15 01:12:44;;;;;;;4.35;1.42;;;17.10;1.00;;;;;;5022226;28;20041;-63
2022/09/15 01:15:10;;;;;;;4.82;1.60;;;17.10;1.00;;;;;;5032737;28;20037;-64
2022/09/15 01:17:58;;;;;;;7.53;1.20;;;16.90;1.00;;;;;;5031748;28;20034;-64
2022/09/15 01:20:54;;;;;;;6.30;1.38;;;16.80;1.00;;;;;;5018867;28;20045;-64
2022/09/15 01:23:36;;;;;;;6.57;1.45;;;16.80;1.00;;;;;;5031394;28;20088;-64
2022/09/15 01:26:16;;;;;;;6.20;1.58;;;16.80;99.90;;;;;;5031673;28;20042;-64
2022/09/15 01:29:19;;;;;;;10.00;1.85;;;16.90;1.00;;;;;;5030314;28;20057;-64
2022/09/15 01:35:10;;;;;;;6.35;1.45;;;16.90;1.00;;;;;;5031813;28;20495;-64
2022/09/15 01:37:42;;;;;;;5.50;1.23;;;16.90;99.90;;;;;;5032334;28;20049;-64
2022/09/15 01:40:09;;;;;;;8.90;2.05;;;17.00;99.90;;;;;;5031119;28;20081;-64
2022/09/15 01:42:36;;;;;;;8.48;1.38;;;17.00;99.90;;;;;;5030659;28;20569;-64
2022/09/15 01:45:12;;;;;;;7.43;1.80;;;17.00;1.00;;;;;;5030337;28;20042;-64
2022/09/15 01:47:38;;;;;;;;;;;17.00;99.90;;;;;;5025092;28;20041;-64
2022/09/15 01:50:16;;;;;;;9.30;1.73;;;17.00;99.90;;;;;;5031647;28;19927;-64
2022/09/15 01:52:47;;;;;;;13.13;2.28;;;16.90;99.90;;;;;;5032377;28;20112;-64
2022/09/15 01:55:25;;;;;;;6.68;1.70;;;16.90;99.90;;;;;;5029910;28;20040;-64
2022/09/15 01:57:51;;;;;;;10.77;2.17;;;16.90;99.90;;;;;;5012640;28;20629;-64
2022/09/15 02:00:17;;;;;;;21.95;2.40;;;16.90;99.90;;;;;;5028919;28;20041;-64
2022/09/15 02:02:48;;;;;;;12.68;2.70;;;16.90;99.90;;;;;;5029411;28;20029;-64
2022/09/15 02:05:38;;;;;;;11.85;2.25;;;16.90;99.90;;;;;;5032276;28;20517;-64
2022/09/15 02:08:04;;;;;;;8.88;1.92;;;17.00;99.90;;;;;;5030387;28;20045;-64
2022/09/15 02:10:49;;;;;;;9.48;1.83;;;17.00;99.90;;;;;;5027650;28;20052;-64
2022/09/15 02:13:31;;;;;;;10.95;2.10;;;17.10;1.00;;;;;;5023358;28;20125;-64
2022/09/15 02:15:59;;;;;;;10.70;2.00;;;17.20;24.90;;;;;;5029490;28;20083;-64
2022/09/15 02:18:38;;;;;;;7.82;1.92;;;17.20;99.90;;;;;;5028851;28;20107;-64
2022/09/15 02:21:11;;;;;;;11.07;2.00;;;17.20;99.90;;;;;;5031704;28;20530;-64
2022/09/15 02:23:44;;;;;;;6.05;1.70;;;17.20;1.00;;;;;;5029865;28;20112;-64
2022/09/15 02:26:16;;;;;;;6.95;1.75;;;17.30;1.00;;;;;;5031764;28;20081;-64
2022/09/15 02:28:45;;;;;;;6.70;1.75;;;17.30;99.90;;;;;;5030694;28;20116;-64
2022/09/15 02:31:15;;;;;;;7.32;1.83;;;17.30;99.90;;;;;;5030355;28;20037;-64
2022/09/15 02:33:47;;;;;;;8.88;1.50;;;17.40;1.00;;;;;;5028566;28;20565;-64
2022/09/15 02:36:17;;;;;;;8.20;1.45;;;17.50;99.90;;;;;;5031036;28;20112;-64
2022/09/15 02:38:47;;;;;;;4.00;1.25;;;17.30;1.00;;;;;;5014112;28;20057;-64
2022/09/15 02:41:13;;;;;;;6.03;1.40;;;17.30;99.90;;;;;;5029156;28;20076;-64
2022/09/15 02:43:49;;;;;;;4.05;1.42;;;17.40;99.90;;;;;;5030236;28;20069;-64
2022/09/15 02:46:17;;;;;;;2.80;1.02;;;17.40;1.00;;;;;;5030646;28;20402;-64
2022/09/15 02:48:43;;;;;;;5.82;1.48;;;17.50;1.00;;;;;;5030977;28;20494;-64
2022/09/15 02:51:09;;;;;;;6.93;1.65;;;17.40;1.00;;;;;;5029886;28;20088;-64
2022/09/15 02:53:35;;;;;;;6.43;1.90;;;17.30;99.90;;;;;;5030887;28;20047;-64
2022/09/15 02:56:02;;;;;;;5.15;1.20;;;17.30;99.90;;;;;;5029794;28;20064;-63
2022/09/15 02:58:27;;;;;;;7.50;1.58;;;17.40;99.90;;;;;;5030401;28;20041;-63
2022/09/15 03:00:55;;;;;;;5.70;1.60;;;17.40;99.90;;;;;;5029761;28;20533;-64
2022/09/15 03:03:21;;;;;;;6.78;1.35;;;17.40;99.90;;;;;;5023997;28;20100;-64
2022/09/15 03:05:46;;;;;;;7.70;1.52;;;17.40;99.90;;;;;;5030324;28;20037;-64
2022/09/15 03:08:12;;;;;;;6.30;1.17;;;17.50;99.90;;;;;;5029422;28;20048;-63
2022/09/15 03:10:38;;;;;;;9.13;1.48;;;17.30;99.90;;;;;;5029896;28;20089;-64
2022/09/15 03:13:04;;;;;;;7.75;1.42;;;17.40;99.90;;;;;;5030093;28;20076;-64
2022/09/15 03:15:29;;;;;;;8.15;1.63;;;17.30;99.90;;;;;;5029537;28;20048;-64
2022/09/15 03:17:55;;;;;;;7.70;1.40;;;17.30;99.90;;;;;;5030444;28;20038;-64
2022/09/15 03:20:29;;;;;;;7.28;1.80;;;17.30;99.90;;;;;;5030267;28;20041;-64
2022/09/15 03:22:55;;;;;;;9.65;1.80;;;17.30;99.90;;;;;;5012510;28;20124;-64
2022/09/15 03:25:20;;;;;;;7.75;1.70;;;17.40;99.90;;;;;;5012197;28;20572;-63
2022/09/15 03:27:46;;;;;;;12.07;2.13;;;17.40;99.90;;;;;;5029678;28;20037;-64
2022/09/15 03:30:13;;;;;;;9.00;1.92;;;17.30;1.00;;;;;;5030665;28;20073;-64
2022/09/15 03:32:39;;;;;;;12.70;2.13;;;17.20;38.40;;;;;;5030335;28;20041;-64
2022/09/15 03:35:05;;;;;;;9.38;2.40;;;17.10;59.80;;;;;;5027378;28;20428;-64
2022/09/15 03:37:31;;;;;;;5.50;1.77;;;17.00;45.20;;;;;;5012260;28;20045;-64
2022/09/15 03:39:57;;;;;;;13.98;2.20;;;17.00;46.60;;;;;;5029982;28;20041;-64
2022/09/15 03:42:23;;;;;;;9.55;1.75;;;17.00;54.40;;;;;;5017645;28;20052;-64
2022/09/15 03:44:48;;;;;;;9.25;1.90;;;17.10;99.30;;;;;;5021339;28;20087;-63
2022/09/15 03:47:14;;;;;;;10.25;1.52;;;16.90;99.90;;;;;;5029485;28;20065;-64
2022/09/15 03:49:40;;;;;;;10.60;1.75;;;16.90;99.90;;;;;;5030509;28;20037;-64
2022/09/15 03:52:05;;;;;;;7.68;1.60;;;16.90;99.90;;;;;;5030302;28;20034;-64
2022/09/15 03:54:31;;;;;;;7.18;1.80;;;17.00;99.90;;;;;;5029815;28;20029;-64
2022/09/15 03:56:56;;;;;;;9.02;1.52;;;17.00;83.40;;;;;;5030379;28;20104;-64
2022/09/15 03:59:22;;;;;;;4.90;1.35;;;17.00;98.80;;;;;;5030749;28;20045;-64
2022/09/15 04:01:49;;;;;;;7.30;1.55;;;16.90;99.90;;;;;;5028799;28;20038;-64
2022/09/15 04:04:15;;;;;;;5.45;1.65;;;17.00;77.10;;;;;;5028543;28;20078;-64
2022/09/15 04:06:40;;;;;;;8.20;1.48;;;16.90;39.40;;;;;;5030657;28;20488;-64
2022/09/15 04:09:06;;;;;;;6.90;1.60;;;17.10;20.20;;;;;;5012392;28;20172;-63
2022/09/15 04:11:32;;;;;;;10.75;1.83;;;17.10;60.30;;;;;;5031949;28;20054;-64
2022/09/15 04:13:58;;;;;;;6.50;1.50;;;17.10;99.90;;;;;;5034036;28;20038;-64
2022/09/15 04:16:26;;;;;;;8.90;1.60;;;17.10;99.90;;;;;;5034176;28;20056;-64
2022/09/15 04:18:54;;;;;;;7.28;1.30;;;17.10;99.90;;;;;;5033151;28;20439;-63
2022/09/15 04:21:22;;;;;;;8.30;1.75;;;17.10;99.90;;;;;;5034137;28;20045;-64
2022/09/15 04:23:48;;;;;;;11.10;1.58;;;17.10;99.90;;;;;;5015947;28;20419;-63
2022/09/15 04:26:20;;;;;;;11.73;1.70;;;17.10;99.90;;;;;;5033778;28;20117;-63
2022/09/15 04:28:46;;;;;;;6.20;1.63;;;17.10;99.90;;;;;;5033070;28;20045;-64
2022/09/15 04:31:14;;;;;;;7.95;1.60;;;17.10;99.90;;;;;;5032362;28;20106;-64
2022/09/15 04:33:42;;;;;;;8.75;1.75;;;17.10;99.90;;;;;;5030062;28;20033;-64
2022/09/15 04:36:13;;;;;;;7.28;1.58;;;17.00;99.90;;;;;;5030394;28;20055;-64
2022/09/15 04:38:39;;;;;;;8.35;1.60;;;17.10;99.90;;;;;;5031788;28;20041;-64
2022/09/15 04:41:05;;;;;;;14.93;2.00;;;17.10;1.00;;;;;;5033223;28;20562;-63
2022/09/15 04:43:31;;;;;;;10.52;2.00;;;17.10;1.00;;;;;;5032893;28;20526;-64
2022/09/15 04:45:57;;;;;;;14.52;2.08;;;17.10;35.50;;;;;;5032230;28;20041;-64
2022/09/15 04:48:23;;;;;;;8.90;1.80;;;17.00;1.00;;;;;;5027841;28;20042;-64
2022/09/15 04:50:49;;;;;;;5.70;1.38;;;17.10;1.00;;;;;;5029934;28;20033;-64
2022/09/15 04:53:15;;;;;;;7.47;1.80;;;17.10;99.90;;;;;;5014045;28;20045;-64
2022/09/15 04:55:41;;;;;;;16.25;2.13;;;17.10;99.90;;;;;;5026275;28;20026;-64
2022/09/15 04:58:07;;;;;;;12.20;2.05;;;17.10;99.90;;;;;;5030009;28;20384;-64
2022/09/15 05:00:41;;;;;;;7.55;1.50;;;17.10;99.90;;;;;;5031026;28;20038;-63
2022/09/15 05:03:07;;;;;;;10.00;2.00;;;17.10;99.90;;;;;;5032868;28;20406;-63
2022/09/15 05:05:33;;;;;;;8.90;2.13;;;17.10;99.90;;;;;;5033627;28;20522;-64
2022/09/15 05:07:59;;;;;;;6.03;1.65;;;17.10;99.90;;;;;;5032955;28;20034;-64
2022/09/15 05:10:25;;;;;;;11.38;2.33;;;17.10;99.90;;;;;;5027834;28;20050;-64
2022/09/15 05:12:52;;;;;;;10.48;1.38;;;17.10;99.90;;;;;;5031364;28;20379;-64
2022/09/15 05:15:17;;;;;;;15.75;2.10;;;17.10;99.90;;;;;;5032232;28;20059;-64
2022/09/15 05:17:43;;;;;;;9.43;1.63;;;17.10;99.90;;;;;;5014355;28;20046;-63
2022/09/15 05:20:08;;;;;;;6.93;1.60;;;17.10;99.90;;;;;;5031051;28;20041;-64
2022/09/15 05:22:34;;;;;;;5.68;1.40;;;17.10;99.90;;;;;;5030615;28;20038;-63
2022/09/15 05:24:59;;;;;;;7.22;1.48;;;17.10;99.90;;;;;;5029373;28;20073;-63
2022/09/15 05:27:25;;;;;;;5.90;1.33;;;16.90;99.90;;;;;;5030066;28;20103;-64
2022/09/15 05:29:50;;;;;;;4.80;1.33;;;17.00;99.90;;;;;;5031540;28;20045;-63
2022/09/15 05:32:16;;;;;;;6.45;1.58;;;16.90;99.90;;;;;;5031408;28;20033;-63
2022/09/15 05:34:41;;;;;;;11.65;1.50;;;16.90;99.90;;;;;;5031837;28;20048;-64
2022/09/15 05:37:09;;;;;;;8.68;1.50;;;16.90;99.90;;;;;;5031172;28;20202;-64
2022/09/15 05:39:34;;;;;;;10.55;1.75;;;16.90;99.90;;;;;;5031255;28;20411;-64
2022/09/15 05:42:00;;;;;;;6.28;1.50;;;16.90;99.90;;;;;;5027825;28;20422;-63
2022/09/15 05:44:25;;;;;;;7.30;1.30;;;16.90;99.90;;;;;;5028849;28;20045;-64
2022/09/15 05:46:51;;;;;;;7.68;1.30;;;16.90;99.90;;;;;;5028522;28;20392;-64
2022/09/15 05:49:16;;;;;;;4.00;0.90;;;16.90;99.90;;;;;;5028240;28;20049;-64
2022/09/15 05:51:42;;;;;;;5.43;1.17;;;17.00;99.90;;;;;;5024826;28;20041;-64
2022/09/15 05:54:07;;;;;;;2.80;1.00;;;17.00;99.90;;;;;;5025877;28;20039;-65
2022/09/15 05:56:33;;;;;;;6.47;1.27;;;17.00;99.90;;;;;;5031780;28;20063;-64
2022/09/15 05:58:59;;;;;;;5.50;1.27;;;17.10;99.90;;;;;;5014642;28;20426;-64
2022/09/15 06:01:29;;;;;;;6.82;1.35;;;17.10;99.90;;;;;;5029383;28;20038;-64
2022/09/15 06:03:55;;;;;;;12.40;1.60;;;17.10;99.90;;;;;;5028616;28;20041;-64
2022/09/15 06:06:22;;;;;;;5.35;1.77;;;17.10;1.00;;;;;;5029294;28;20061;-64
2022/09/15 06:08:51;;;;;;;5.80;1.48;;;17.20;1.00;;;;;;5025064;28;20644;-64
2022/09/15 06:11:18;;;;;;;8.63;1.40;;;17.00;1.00;;;;;;5026763;28;20060;-64
2022/09/15 06:13:45;;;;;;;16.33;1.90;;;17.00;99.90;;;;;;5027330;28;20054;-64
2022/09/15 06:16:18;;;;;;;9.15;1.63;;;17.00;1.00;;;;;;5020568;28;20483;-64
2022/09/15 06:18:43;;;;;;;9.35;1.60;;;17.00;1.00;;;;;;5022173;28;20096;-65
2022/09/15 06:21:15;;;;;;;11.32;1.60;;;17.00;99.90;;;;;;5025686;28;20033;-65
2022/09/15 06:23:42;;;;;;;11.50;1.90;;;16.90;99.90;;;;;;5028237;28;20410;-63
2022/09/15 06:26:16;;;;;;;5.85;1.45;;;16.90;99.90;;;;;;5011371;28;20041;-63
2022/09/15 06:28:48;;;;;;;6.35;1.30;;;16.90;99.90;;;;;;5029542;28;20037;-63
2022/09/15 06:31:14;;;;;;;5.75;1.27;;;16.90;1.00;;;;;;5030937;28;20659;-63
2022/09/15 06:33:42;;;;;;;3.42;1.25;;;17.00;1.00;;;;;;5031149;28;20041;-63
2022/09/15 06:36:10;;;;;;;10.38;1.67;;;17.00;99.90;;;;;;5030881;28;20068;-63
2022/09/15 06:38:35;;;;;;;15.48;1.70;;;17.20;99.90;;;;;;5029240;28;20509;-63
2022/09/15 06:41:02;;;;;;;8.07;1.30;;;16.90;99.90;;;;;;5031338;28;20034;-63
2022/09/15 06:43:30;;;;;;;3.78;1.42;;;16.70;58.60;;;;;;5031240;28;20033;-62
2022/09/15 06:46:02;;;;;;;2.83;1.05;;;16.40;99.90;;;;;;5030837;28;20096;-63
2022/09/15 06:48:28;;;;;;;2.42;0.80;;;16.20;97.30;;;;;;5000233;28;20403;-63
2022/09/15 06:50:54;;;;;;;6.03;1.40;;;16.10;99.90;;;;;;5031084;28;20042;-62
2022/09/15 06:53:20;;;;;;;6.93;1.60;;;15.90;1.00;;;;;;5031519;28;20518;-62
2022/09/15 06:55:46;;;;;;;10.93;2.33;;;15.80;1.00;;;;;;5031097;28;20046;-63
2022/09/15 06:58:11;;;;;;;8.65;1.80;;;15.60;99.90;;;;;;5031439;28;20040;-62
2022/09/15 07:00:37;;;;;;;9.43;1.60;;;15.60;99.90;;;;;;5030154;28;20601;-62
2022/09/15 07:03:02;;;;;;;13.20;2.05;;;15.60;15.00;;;;;;5026974;28;20415;-63
2022/09/15 07:05:28;;;;;;;9.35;1.60;;;15.80;99.90;;;;;;5029970;28;20044;-63
2022/09/15 07:07:54;;;;;;;8.02;1.60;;;15.80;10.50;;;;;;5030660;28;20042;-63
2022/09/15 07:10:20;;;;;;;6.53;1.80;;;15.90;1.00;;;;;;5030848;28;20107;-63
2022/09/15 07:12:45;;;;;;;12.65;1.85;;;16.00;12.90;;;;;;5031516;28;20045;-63
2022/09/15 07:15:11;;;;;;;5.63;1.58;;;16.10;1.00;;;;;;5030876;28;20454;-63
2022/09/15 07:17:36;;;;;;;15.85;1.60;;;16.10;54.50;;;;;;5030180;28;20453;-63
2022/09/15 07:20:02;;;;;;;11.35;1.88;;;16.20;99.90;;;;;;5029024;28;20772;-63
2022/09/15 07:22:28;;;;;;;7.68;1.85;;;16.30;99.90;;;;;;5028361;28;20415;-62
2022/09/15 07:24:53;;;;;;;13.05;1.73;;;16.40;99.90;;;;;;5009544;28;20050;-63
2022/09/15 07:27:21;;;;;;;12.35;1.70;;;16.60;99.90;;;;;;5023731;28;20037;-63
2022/09/15 07:29:46;;;;;;;5.75;1.23;;;16.80;99.90;;;;;;5010666;28;20061;-63
2022/09/15 07:32:12;;;;;;;7.28;1.60;;;16.80;66.20;;;;;;5028392;28;20441;-63
2022/09/15 07:34:37;;;;;;;7.07;1.42;;;16.90;99.90;;;;;;5028443;28;20053;-63
2022/09/15 07:37:03;;;;;;;6.40;1.48;;;17.30;99.90;;;;;;5028823;28;20160;-63
2022/09/15 07:39:29;;;;;;;5.53;1.50;;;17.20;58.00;;;;;;5029044;28;20073;-63
2022/09/15 07:41:54;;;;;;;7.90;1.60;;;17.40;1.00;;;;;;5030154;28;20442;-63
2022/09/15 07:44:20;;;;;;;8.35;1.67;;;17.50;99.90;;;;;;5014121;28;20046;-63
2022/09/15 07:46:45;;;;;;;3.72;1.05;;;17.40;99.90;;;;;;5033010;28;20045;-63
2022/09/15 07:49:11;;;;;;;9.80;1.52;;;17.30;99.90;;;;;;5034179;28;20491;-63
2022/09/15 07:51:37;;;;;;;4.60;1.38;;;17.20;99.90;;;;;;5034544;28;20037;-63
2022/09/15 07:54:03;;;;;;;4.72;1.33;;;17.30;1.00;;;;;;5034755;28;20113;-63
2022/09/15 07:56:29;;;;;;;4.53;1.17;;;17.50;36.50;;;;;;5033700;28;20061;-63
2022/09/15 07:58:55;;;;;;;4.40;1.60;;;17.70;99.90;;;;;;5033664;28;20513;-63
2022/09/15 08:01:21;;;;;;;4.70;1.00;;;17.90;99.90;;;;;;5033061;28;20037;-63
2022/09/15 08:03:49;;;;;;;2.78;0.90;;;17.80;1.00;;;;;;5034218;28;20463;-63
2022/09/15 08:06:17;;;;;;;5.07;1.20;;;17.70;99.90;;;;;;5031841;28;20033;-63
2022/09/15 08:08:43;;;;;;;5.07;0.95;;;17.80;99.90;;;;;;5032269;28;20115;-63
2022/09/15 08:11:12;;;;;;;5.47;0.98;;;18.60;99.90;;;;;;5032912;28;20057;-63
2022/09/15 08:13:37;;;;;;;3.17;0.90;;;18.10;1.00;;;;;;5033862;28;20072;-63
2022/09/15 08:16:08;;;;;;;5.50;0.88;;;17.90;1.00;;;;;;5033622;28;20548;-63
2022/09/15 08:18:34;;;;;;;4.72;1.25;;;17.80;1.00;;;;;;5032940;28;20034;-63
2022/09/15 08:21:05;;;;;;;8.48;2.10;;;17.70;99.90;;;;;;5033116;28;20034;-63
2022/09/15 08:23:31;;;;;;;14.45;2.13;;;17.70;99.90;;;;;;5033878;28;20099;-63
2022/09/15 08:25:56;;;;;;;5.57;1.73;;;17.60;99.90;;;;;;5032740;28;20033;-63
2022/09/15 08:28:22;;;;;;;7.40;1.45;;;17.60;99.90;;;;;;5033852;28;20033;-63
2022/09/15 08:30:47;;;;;;;5.00;1.40;;;17.50;1.00;;;;;;5033136;28;20106;-63
2022/09/15 08:33:13;;;;;;;5.53;1.30;;;17.50;1.00;;;;;;5033842;28;20033;-63
2022/09/15 08:35:38;;;;;;;6.82;1.23;;;17.50;99.90;;;;;;5032575;28;20037;-63
2022/09/15 08:38:04;;;;;;;3.63;1.15;;;17.40;1.00;;;;;;5038261;28;20038;-63
2022/09/15 08:40:34;;;;;;;8.13;1.20;;;17.60;1.00;;;;;;5033234;28;20037;-63
2022/09/15 08:43:04;;;;;;;10.82;1.70;;;18.10;1.00;;;;;;5031695;28;20057;-63
2022/09/15 08:45:42;;;;;;;4.22;1.20;;;18.60;1.00;;;;;;5030148;28;20045;-63
2022/09/15 08:48:14;;;;;;;9.50;1.42;;;18.80;1.00;;;;;;5019158;28;20069;-63
2022/09/15 08:50:46;;;;;;;8.82;1.80;;;18.50;99.90;;;;;;5032475;28;20052;-63
2022/09/15 08:53:17;;;;;;;10.43;1.80;;;18.30;99.90;;;;;;5033050;28;20037;-63
2022/09/15 08:55:52;;;;;;;11.52;2.42;;;18.30;1.00;;;;;;5032710;28;20040;-63
2022/09/15 08:58:34;;;;;;;8.40;1.23;;;18.00;1.00;;;;;;5032314;28;20117;-63
2022/09/15 09:01:23;;;;;;;6.63;1.38;;;18.00;99.90;;;;;;5032722;28;20168;-63
2022/09/15 09:04:15;;;;;;;3.80;1.10;;;18.00;99.90;;;;;;5032858;28;20499;-63
2022/09/15 09:07:02;;;;;;;10.10;1.92;;;18.30;99.90;;;;;;4986231;28;20052;-63
2022/09/15 09:09:48;;;;;;;7.53;1.75;;;18.40;99.90;;;;;;5015415;28;20038;-64
2022/09/15 09:12:19;;;;;;;10.82;1.70;;;18.50;1.00;;;;;;5032627;28;20128;-63
2022/09/15 09:15:15;;;;;;;3.85;1.25;;;18.50;99.90;;;;;;5031494;28;20044;-64
2022/09/15 09:17:44;;;;;;;6.63;1.27;;;18.40;99.90;;;;;;5033169;28;20044;-63
2022/09/15 09:20:28;;;;;;;9.00;1.75;;;18.30;1.00;;;;;;5031497;28;20037;-63
2022/09/15 09:22:54;;;;;;;5.40;1.50;;;18.20;80.10;;;;;;5033079;28;20136;-63
2022/09/15 09:25:21;;;;;;;7.65;1.90;;;18.10;52.10;;;;;;5030301;28;20033;-63
2022/09/15 09:27:47;;;;;;;11.63;2.00;;;18.20;99.90;;;;;;5032621;28;20498;-63
2022/09/15 09:30:19;;;;;;;9.48;1.45;;;18.20;99.90;;;;;;5031504;28;20037;-63
2022/09/15 09:32:59;;;;;;;7.53;1.63;;;18.20;1.00;;;;;;5032606;28;20037;-63
2022/09/15 09:35:44;;;;;;;20.88;2.47;;;18.10;99.90;;;;;;5031818;28;20040;-63
2022/09/15 09:38:27;;;;;;;9.18;1.27;;;18.10;99.90;;;;;;5032449;28;20036;-63
2022/09/15 09:40:53;;;;;;;8.43;1.63;;;18.00;99.90;;;;;;5025127;28;20491;-64
2022/09/15 09:43:19;;;;;;;7.15;1.75;;;18.00;62.20;;;;;;5032272;28;20048;-64
2022/09/15 09:45:44;;;;;;;3.97;1.05;;;18.30;51.30;;;;;;5010122;28;20122;-63
2022/09/15 09:48:20;;;;;;;9.70;0.93;;;18.50;1.00;;;;;;5020921;28;20105;-66
2022/09/15 09:50:46;;;;;;;;;;;18.60;1.00;;;;;;5029266;28;20042;-66
2022/09/15 09:53:27;;;;;;;6.45;1.38;;;18.80;1.00;;;;;;5029292;28;19996;-66
2022/09/15 09:56:13;;;;;;;3.90;1.20;;;18.80;99.90;;;;;;5024653;28;20049;-64
2022/09/15 09:58:38;;;;;;;7.88;0.90;;;18.90;99.90;;;;;;5026954;28;20037;-65
2022/09/15 10:01:19;;;;;;;1.75;0.88;;;18.80;99.90;;;;;;5025445;28;20514;-65
2022/09/15 10:03:45;;;;;;;9.07;1.63;;;18.90;99.90;;;;;;5020399;28;20044;-64
2022/09/15 10:06:27;;;;;;;8.40;1.33;;;18.90;99.90;;;;;;5028081;28;20041;-65
2022/09/15 10:09:04;;;;;;;3.30;1.08;;;19.00;99.90;;;;;;5026704;28;20037;-65
2022/09/15 10:11:43;;;;;;;4.93;1.10;;;19.10;99.90;;;;;;5031331;28;20064;-65
2022/09/15 10:14:37;;;;;;;6.40;1.15;;;19.30;99.90;;;;;;5028658;28;20439;-65
2022/09/15 10:17:10;;;;;;;4.15;0.93;;;19.30;99.90;;;;;;5017667;28;20050;-65
2022/09/15 10:19:57;;;;;;;7.35;1.40;;;19.20;99.90;;;;;;5030366;28;20041;-65
2022/09/15 10:22:35;;;;;;;8.52;1.60;;;19.30;1.00;;;;;;5030392;28;20045;-65
2022/09/15 10:25:25;;;;;;;11.68;1.90;;;19.50;1.00;;;;;;5028013;28;20092;-65
2022/09/15 10:28:21;;;;;;;10.38;1.65;;;19.40;1.00;;;;;;5005916;28;20132;-65
2022/09/15 10:31:02;;;;;;;;;;;19.00;1.00;;;;;;5019791;28;20057;-65
2022/09/15 10:33:33;;;;;;;6.93;1.42;;;18.60;39.90;;;;;;5029799;28;20153;-65
2022/09/15 10:36:27;;;;;;;4.13;1.20;;;18.50;1.00;;;;;;5028782;28;20811;-65
2022/09/15 10:39:14;;;;;;;7.72;1.50;;;18.40;11.30;;;;;;5021150;28;20423;-65
2022/09/15 10:42:03;;;;;;;5.65;1.45;;;18.50;97.40;;;;;;5026671;28;20112;-65
2022/09/15 10:44:38;;;;;;;5.72;1.17;;;18.30;10.50;;;;;;5025676;28;20030;-65
2022/09/15 10:47:56;;;;;;;4.35;1.10;;;18.30;65.30;;;;;;5028078;28;20064;-65
2022/09/15 10:50:31;;;;;;;3.95;1.17;;;18.20;1.00;;;;;;4985261;28;20055;-65
2022/09/15 10:53:31;;;;;;;9.55;0.98;;;18.40;5.80;;;;;;5021285;28;20087;-63
2022/09/15 10:56:27;;;;;;;5.50;1.23;;;18.40;1.00;;;;;;5005966;28;20057;-66
2022/09/15 10:59:28;;;;;;;4.63;1.13;;;18.60;1.00;;;;;;5027284;28;20037;-65
2022/09/15 11:02:40;;;;;;;4.10;0.98;;;19.10;1.00;;;;;;5030477;28;20120;-65
2022/09/15 11:05:24;;;;;;;2.08;0.80;;;19.50;99.90;;;;;;5006907;28;20521;-65
2022/09/15 11:07:55;;;;;;;6.15;1.00;;;19.60;99.90;;;;;;5025805;28;20044;-64
2022/09/15 11:10:30;;;;;;;3.60;1.20;;;19.40;99.90;;;;;;5024688;28;20057;-67
2022/09/15 11:13:16;;;;;;;4.10;1.20;;;19.20;99.90;;;;;;5025944;28;20176;-66
2022/09/15 11:16:13;;;;;;;2.22;0.90;;;19.10;99.90;;;;;;5021963;28;20487;-64
2022/09/15 11:19:05;;;;;;;2.90;0.80;;;18.90;99.90;;;;;;4972422;28;20085;-65
2022/09/15 11:21:45;;;;;;;7.63;1.10;;;19.00;99.90;;;;;;5029054;28;20041;-65
2022/09/15 11:24:28;;;;;;;4.47;1.35;;;19.00;99.90;;;;;;5027793;28;20038;-65
2022/09/15 11:27:02;;;;;;;3.80;1.20;;;19.10;99.90;;;;;;5032005;28;20072;-65
2022/09/15 11:29:54;;;;;;;4.38;1.48;;;18.80;99.90;;;;;;5030620;28;20415;-66
2022/09/15 11:32:41;;;;;;;5.22;1.42;;;18.60;99.90;;;;;;5027728;28;20037;-66
2022/09/15 11:35:47;;;;;;;8.40;1.50;;;18.60;99.90;;;;;;5030123;28;20466;-66
2022/09/15 11:38:34;;;;;;;3.00;1.20;;;18.60;99.90;;;;;;5029594;28;20041;-66
2022/09/15 11:41:17;;;;;;;4.93;1.17;;;18.40;1.00;;;;;;5028478;28;20072;-66
2022/09/15 11:43:55;;;;;;;9.25;1.33;;;18.30;1.00;;;;;;5032656;28;20501;-65
2022/09/15 11:46:37;;;;;;;7.93;1.30;;;18.40;32.50;;;;;;5032101;28;20047;-65
2022/09/15 11:49:07;;;;;;;4.88;1.77;;;18.40;70.70;;;;;;5028255;28;20042;-66
2022/09/15 11:51:41;;;;;;;6.60;1.75;;;18.60;21.00;;;;;;5031020;28;20041;-66
2022/09/15 11:54:19;;;;;;;7.43;1.48;;;18.40;99.90;;;;;;5031436;28;20576;-66
2022/09/15 11:56:46;;;;;;;8.00;1.60;;;18.30;1.00;;;;;;5031218;28;20022;-66
2022/09/15 11:59:31;;;;;;;9.48;1.90;;;18.20;1.00;;;;;;5033362;28;20059;-65
2022/09/15 12:02:15;;;;;;;7.57;1.50;;;18.20;19.70;;;;;;5026446;28;20041;-66
2022/09/15 12:05:09;;;;;;;5.43;1.30;;;18.10;99.90;;;;;;5031836;28;20029;-66
2022/09/15 12:07:51;;;;;;;7.35;1.80;;;18.00;99.90;;;;;;5031770;28;20112;-66
2022/09/15 12:10:22;;;;;;;10.07;1.63;;;18.10;1.00;;;;;;5030275;28;20037;-66
2022/09/15 12:12:51;;;;;;;6.15;1.33;;;18.20;95.00;;;;;;5032104;28;20046;-66
2022/09/15 12:15:19;;;;;;;10.88;2.10;;;18.50;60.00;;;;;;5030420;28;20029;-65
2022/09/15 12:17:53;;;;;;;6.60;1.88;;;18.20;99.90;;;;;;5032369;28;20037;-66
2022/09/15 12:20:22;;;;;;;6.88;1.30;;;18.00;99.90;;;;;;5028007;28;20108;-66
2022/09/15 12:22:54;;;;;;;4.13;0.90;;;18.00;1.00;;;;;;5033029;28;20033;-66
2022/09/15 12:25:34;;;;;;;5.85;1.17;;;17.80;20.80;;;;;;5027051;28;20090;-66
2022/09/15 12:28:22;;;;;;;3.22;1.13;;;17.80;1.00;;;;;;5032209;28;20048;-65
2022/09/15 12:31:08;;;;;;;5.75;1.45;;;17.80;99.90;;;;;;5031409;28;20094;-65
2022/09/15 12:33:56;;;;;;;;;;;17.90;99.90;;;;;;5014302;28;20041;-65
2022/09/15 12:37:13;;;;;;;6.15;1.95;;;18.10;99.90;;;;;;5026225;28;19917;-65
2022/09/15 12:39:43;;;;;;;7.55;1.83;;;17.70;99.90;;;;;;4966803;28;20468;-65
2022/09/15 12:42:22;;;;;;;12.88;2.30;;;17.30;1.00;;;;;;5029506;28;20755;-65
2022/09/15 12:44:53;;;;;;;13.65;2.40;;;17.20;71.40;;;;;;5029202;28;20037;-66
2022/09/15 12:47:24;;;;;;;10.07;2.38;;;17.10;99.90;;;;;;5031476;28;20069;-66
2022/09/15 12:49:52;;;;;;;13.30;2.83;;;17.20;1.00;;;;;;5028252;28;20415;-65
2022/09/15 12:52:20;;;;;;;13.15;2.20;;;17.20;97.50;;;;;;5028478;28;20045;-65
2022/09/15 12:54:56;;;;;;;15.40;2.63;;;17.20;99.90;;;;;;5026883;28;20794;-66
2022/09/15 12:57:25;;;;;;;14.02;2.25;;;17.20;99.90;;;;;;5033319;28;20026;-65
2022/09/15 13:00:19;;;;;;;10.02;1.90;;;17.20;99.90;;;;;;5030697;28;20045;-65
2022/09/15 13:02:49;;;;;;;6.72;1.48;;;17.40;1.00;;;;;;5029202;28;20091;-66
2022/09/15 13:05:40;;;;;;;9.15;2.30;;;17.60;99.90;;;;;;5032485;28;20197;-65
2022/09/15 13:08:33;;;;;;;4.90;1.27;;;17.90;99.90;;;;;;5029496;28;20029;-65
2022/09/15 13:11:07;;;;;;;9.57;1.73;;;18.00;99.90;;;;;;5030303;28;20057;-65
2022/09/15 13:13:59;;;;;;;9.63;1.40;;;18.10;99.90;;;;;;5030476;28;20072;-65
2022/09/15 13:16:29;;;;;;;5.47;1.45;;;18.20;88.90;;;;;;5030311;28;20037;-65